createdAt,value
2022-10-19T00:01:16.716Z,17.13
2022-10-19T00:03:45.253Z,14.00
2022-10-19T00:06:13.531Z,11.57
2022-10-19T00:08:40.430Z,17.80
2022-10-19T00:11:07.574Z,9.40
2022-10-19T00:13:35.364Z,11.10
2022-10-19T00:16:10.602Z,13.75
2022-10-19T00:18:38.652Z,8.88
2022-10-19T00:21:06.976Z,13.23
2022-10-19T00:23:34.324Z,11.25
2022-10-19T00:26:01.145Z,13.85
2022-10-19T00:28:28.415Z,13.88
2022-10-19T00:30:55.733Z,16.38
2022-10-19T00:33:22.796Z,11.70
2022-10-19T00:35:51.223Z,14.90
2022-10-19T00:38:19.256Z,14.30
2022-10-19T00:40:45.979Z,22.25
2022-10-19T00:43:24.919Z,13.48
2022-10-19T00:45:52.581Z,14.38
2022-10-19T00:48:23.010Z,19.83
2022-10-19T00:50:53.637Z,13.13
2022-10-19T00:53:21.512Z,10.93
2022-10-19T00:55:48.364Z,16.23
2022-10-19T00:58:15.422Z,9.43
2022-10-19T01:00:42.391Z,10.43
2022-10-19T01:03:11.284Z,12.40
2022-10-19T01:05:38.849Z,12.43
2022-10-19T01:08:07.502Z,12.65
2022-10-19T01:11:00.385Z,15.27
2022-10-19T01:14:00.088Z,16.33
2022-10-19T01:17:11.156Z,13.77
2022-10-19T01:19:49.665Z,15.15
2022-10-19T01:22:39.153Z,18.08
2022-10-19T01:25:22.984Z,6.68
2022-10-19T01:28:08.724Z,11.98
2022-10-19T01:31:01.221Z,15.70
2022-10-19T01:33:28.186Z,13.68
2022-10-19T01:36:30.398Z,18.15
2022-10-19T01:39:08.683Z,12.95
2022-10-19T01:41:44.096Z,8.40
2022-10-19T01:44:16.569Z,13.18
2022-10-19T01:46:53.649Z,8.25
2022-10-19T01:49:22.724Z,14.27
2022-10-19T01:51:59.925Z,8.32
2022-10-19T01:54:31.246Z,6.38
2022-10-19T01:57:01.981Z,13.73
2022-10-19T01:59:30.251Z,20.45
2022-10-19T02:01:58.094Z,13.63
2022-10-19T02:04:26.028Z,10.43
2022-10-19T02:06:54.889Z,11.23
2022-10-19T02:09:21.800Z,5.50
2022-10-19T02:11:54.658Z,9.95
2022-10-19T02:14:29.275Z,8.65
2022-10-19T02:17:31.322Z,8.75
2022-10-19T02:19:59.561Z,12.13
2022-10-19T02:22:26.203Z,10.10
2022-10-19T02:24:52.892Z,11.60
2022-10-19T02:27:19.789Z,6.03
2022-10-19T02:29:46.780Z,18.10
2022-10-19T02:32:13.641Z,13.13
2022-10-19T02:34:40.648Z,5.35
2022-10-19T02:37:07.593Z,7.82
2022-10-19T02:39:34.305Z,9.40
2022-10-19T02:42:07.099Z,7.53
2022-10-19T02:45:02.430Z,5.80
2022-10-19T02:47:34.853Z,8.82
2022-10-19T02:50:05.989Z,8.18
2022-10-19T02:52:32.851Z,16.52
2022-10-19T02:54:59.476Z,5.70
2022-10-19T02:57:26.245Z,9.43
2022-10-19T02:59:53.175Z,3.92
2022-10-19T03:02:20.720Z,8.55
2022-10-19T03:07:21.105Z,2.97
2022-10-19T03:09:48.058Z,3.85
2022-10-19T03:12:15.182Z,11.48
2022-10-19T03:14:42.448Z,10.93
2022-10-19T03:17:09.697Z,4.90
2022-10-19T03:19:37.102Z,5.53
2022-10-19T03:22:04.762Z,5.25
2022-10-19T03:24:31.832Z,12.45
2022-10-19T03:26:58.481Z,6.55
2022-10-19T03:29:25.376Z,9.75
2022-10-19T03:31:52.031Z,7.82
2022-10-19T03:34:19.032Z,4.10
2022-10-19T03:36:45.669Z,14.38
2022-10-19T03:39:14.258Z,10.55
2022-10-19T03:41:41.647Z,7.35
2022-10-19T03:44:09.947Z,12.98
2022-10-19T03:46:37.688Z,5.72
2022-10-19T03:49:04.699Z,9.68
2022-10-19T03:51:32.519Z,7.32
2022-10-19T03:54:04.287Z,6.70
2022-10-19T03:56:33.716Z,7.13
2022-10-19T03:59:02.207Z,6.32
2022-10-19T04:01:37.846Z,14.18
2022-10-19T04:04:13.345Z,3.83
2022-10-19T04:06:42.796Z,5.40
2022-10-19T04:09:12.826Z,7.28
2022-10-19T04:11:40.105Z,9.02
2022-10-19T04:14:07.216Z,8.50
2022-10-19T04:16:34.472Z,3.65
2022-10-19T04:19:01.747Z,3.42
2022-10-19T04:21:37.523Z,2.92
2022-10-19T04:24:10.130Z,3.00
2022-10-19T04:26:42.389Z,6.40
2022-10-19T04:29:09.912Z,4.78
2022-10-19T04:31:37.026Z,8.00
2022-10-19T04:34:04.235Z,13.77
2022-10-19T04:36:30.924Z,2.63
2022-10-19T04:38:57.625Z,11.63
2022-10-19T04:41:24.804Z,6.13
2022-10-19T04:43:57.842Z,5.75
2022-10-19T04:46:24.936Z,5.65
2022-10-19T04:48:51.906Z,3.33
2022-10-19T04:51:20.054Z,3.45
2022-10-19T04:53:47.328Z,9.35
2022-10-19T04:56:20.562Z,6.13
2022-10-19T04:58:47.832Z,8.15
2022-10-19T05:01:19.588Z,8.93
2022-10-19T05:03:47.085Z,2.70
2022-10-19T05:06:15.009Z,4.55
2022-10-19T05:08:42.500Z,7.82
2022-10-19T05:11:12.522Z,3.45
2022-10-19T05:13:39.379Z,2.88
2022-10-19T05:16:08.451Z,3.03
2022-10-19T05:18:36.109Z,5.85
2022-10-19T05:21:06.765Z,3.60
2022-10-19T05:23:34.001Z,5.95
2022-10-19T05:26:07.789Z,7.93
2022-10-19T05:28:35.492Z,9.32
2022-10-19T05:31:20.961Z,13.70
2022-10-19T05:33:47.923Z,3.95
2022-10-19T05:36:22.692Z,10.13
2022-10-19T05:38:50.632Z,4.72
2022-10-19T05:41:17.698Z,2.70
2022-10-19T05:43:45.441Z,6.00
2022-10-19T05:46:14.845Z,9.00
2022-10-19T05:48:41.822Z,3.33
2022-10-19T05:51:11.806Z,4.68
2022-10-19T05:56:18.145Z,2.67
2022-10-19T05:58:45.113Z,3.50
2022-10-19T06:01:11.870Z,4.28
2022-10-19T06:03:38.550Z,4.55
2022-10-19T06:06:06.792Z,8.43
2022-10-19T06:08:34.184Z,2.90
2022-10-19T06:11:06.528Z,10.45
2022-10-19T06:13:33.387Z,7.00
2022-10-19T06:16:00.015Z,4.65
2022-10-19T06:18:26.762Z,3.78
2022-10-19T06:20:53.912Z,6.00
2022-10-19T06:23:20.532Z,2.65
2022-10-19T06:25:47.441Z,4.55
2022-10-19T06:28:14.121Z,2.60
2022-10-19T06:30:41.675Z,7.85
2022-10-19T06:33:08.369Z,6.22
2022-10-19T06:35:35.428Z,4.68
2022-10-19T06:38:02.028Z,4.32
2022-10-19T06:40:28.736Z,6.85
2022-10-19T06:42:56.280Z,5.45
2022-10-19T06:45:22.864Z,5.75
2022-10-19T06:47:49.680Z,3.05
2022-10-19T06:50:16.411Z,19.90
2022-10-19T06:52:43.078Z,3.22
2022-10-19T06:55:10.083Z,10.68
2022-10-19T06:57:36.975Z,7.45
2022-10-19T07:00:05.515Z,9.15
2022-10-19T07:02:33.521Z,8.65
2022-10-19T07:05:04.468Z,6.50
2022-10-19T07:07:34.161Z,14.23
2022-10-19T07:10:01.114Z,14.27
2022-10-19T07:12:27.775Z,5.80
2022-10-19T07:14:55.645Z,3.65
2022-10-19T07:17:22.402Z,5.57
2022-10-19T07:19:49.021Z,7.95
2022-10-19T07:22:20.346Z,8.25
2022-10-19T07:24:49.918Z,8.43
2022-10-19T07:27:16.504Z,8.82
2022-10-19T07:29:43.147Z,9.07
2022-10-19T07:32:09.841Z,9.77
2022-10-19T07:34:36.614Z,2.70
2022-10-19T07:37:03.384Z,4.28
2022-10-19T07:39:29.969Z,7.88
2022-10-19T07:41:56.638Z,5.25
2022-10-19T07:44:23.381Z,4.75
2022-10-19T07:46:50.446Z,18.58
2022-10-19T07:49:19.126Z,9.40
2022-10-19T07:51:46.874Z,10.93
2022-10-19T07:54:13.886Z,15.90
2022-10-19T07:56:41.076Z,30.90
2022-10-19T07:59:07.764Z,24.10
2022-10-19T08:01:41.683Z,25.75
2022-10-19T08:06:55.323Z,26.67
2022-10-19T08:09:52.209Z,22.10
2022-10-19T08:12:12.468Z,32.25
2022-10-19T08:14:41.629Z,23.88
2022-10-19T08:17:11.728Z,22.52
2022-10-19T08:19:43.406Z,23.83
2022-10-19T08:22:11.269Z,21.52
2022-10-19T08:24:38.096Z,20.67
2022-10-19T08:27:04.795Z,19.73
2022-10-19T08:29:31.948Z,28.85
2022-10-19T08:31:59.242Z,18.65
2022-10-19T08:34:26.334Z,20.10
2022-10-19T08:36:52.997Z,21.58
2022-10-19T08:39:19.607Z,18.65
2022-10-19T08:42:08.539Z,21.55
2022-10-19T08:44:53.848Z,21.23
2022-10-19T08:47:31.498Z,19.58
2022-10-19T08:49:58.998Z,22.95
2022-10-19T08:52:35.776Z,23.88
2022-10-19T08:55:16.473Z,18.35
2022-10-19T08:58:04.968Z,24.80
2022-10-19T09:03:54.378Z,28.08
2022-10-19T09:06:40.933Z,18.63
2022-10-19T09:09:13.045Z,21.95
2022-10-19T09:11:46.886Z,28.63
2022-10-19T09:14:36.476Z,23.60
2022-10-19T09:17:10.804Z,36.30
2022-10-19T09:19:37.528Z,24.58
2022-10-19T09:22:20.720Z,25.20
2022-10-19T09:25:06.223Z,17.52
2022-10-19T09:27:39.381Z,16.75
2022-10-19T09:30:15.648Z,17.67
2022-10-19T09:32:43.115Z,19.83
2022-10-19T09:35:15.781Z,22.90
2022-10-19T09:37:48.193Z,16.63
2022-10-19T09:40:19.336Z,19.55
2022-10-19T09:42:46.087Z,20.92
2022-10-19T09:45:20.035Z,20.48
2022-10-19T09:47:48.891Z,17.77
2022-10-19T09:50:15.521Z,32.10
2022-10-19T09:52:44.128Z,23.48
2022-10-19T09:55:13.497Z,14.85
2022-10-19T09:57:51.387Z,14.60
2022-10-19T10:00:36.748Z,19.63
2022-10-19T10:03:03.934Z,16.80
2022-10-19T10:05:40.093Z,14.20
2022-10-19T10:08:16.202Z,13.75
2022-10-19T10:10:46.477Z,14.55
2022-10-19T10:13:25.855Z,15.23
2022-10-19T10:16:05.809Z,14.60
2022-10-19T10:18:37.536Z,14.20
2022-10-19T10:21:13.786Z,20.23
2022-10-19T10:23:40.831Z,19.98
2022-10-19T10:26:18.283Z,14.82
2022-10-19T10:28:50.188Z,14.10
2022-10-19T10:31:22.260Z,14.27
2022-10-19T10:33:55.819Z,11.23
2022-10-19T10:36:25.666Z,12.68
2022-10-19T10:38:56.162Z,11.45
2022-10-19T10:41:24.001Z,12.82
2022-10-19T10:44:04.696Z,11.40
2022-10-19T10:46:37.386Z,10.95
2022-10-19T10:49:16.561Z,12.95
2022-10-19T10:51:49.229Z,13.23
2022-10-19T10:54:32.821Z,11.40
2022-10-19T10:57:04.385Z,15.52
2022-10-19T10:59:57.336Z,13.80
2022-10-19T11:02:49.602Z,18.38
2022-10-19T11:05:34.221Z,17.73
2022-10-19T11:08:13.149Z,13.05
2022-10-19T11:10:47.720Z,13.02
2022-10-19T11:13:21.502Z,10.65
2022-10-19T11:16:00.539Z,10.75
2022-10-19T11:18:32.659Z,14.32
2022-10-19T11:21:11.171Z,10.68
2022-10-19T11:24:00.369Z,12.82
2022-10-19T11:26:35.490Z,22.00
2022-10-19T11:29:20.338Z,14.07
2022-10-19T11:31:53.424Z,16.98
2022-10-19T11:34:53.380Z,11.70
2022-10-19T11:38:17.526Z,11.90
2022-10-19T11:41:18.869Z,11.20
2022-10-19T11:43:58.352Z,18.08
2022-10-19T11:46:49.740Z,11.65
2022-10-19T11:49:30.808Z,10.60
2022-10-19T11:52:12.447Z,10.55
2022-10-19T11:54:56.024Z,16.88
2022-10-19T11:57:51.081Z,10.32
2022-10-19T12:00:38.172Z,13.30
2022-10-19T12:03:27.224Z,11.93
2022-10-19T12:06:08.244Z,10.55
2022-10-19T12:08:56.191Z,11.68
2022-10-19T12:11:50.642Z,10.23
2022-10-19T12:14:22.268Z,12.00
2022-10-19T12:16:56.381Z,13.55
2022-10-19T12:19:28.077Z,10.35
2022-10-19T12:22:00.431Z,12.50
2022-10-19T12:24:30.004Z,12.07
2022-10-19T12:26:57.868Z,11.02
2022-10-19T12:29:29.740Z,10.73
2022-10-19T12:31:59.608Z,11.30
2022-10-19T12:34:44.754Z,9.27
2022-10-19T12:39:43.666Z,11.52
2022-10-19T12:42:27.663Z,10.27
2022-10-19T12:45:22.032Z,11.93
2022-10-19T12:48:11.272Z,20.77
2022-10-19T12:50:50.099Z,15.50
2022-10-19T12:53:36.129Z,12.10
2022-10-19T12:56:07.814Z,11.55
2022-10-19T12:59:01.654Z,10.35
2022-10-19T13:01:44.026Z,17.42
2022-10-19T13:04:23.651Z,14.90
2022-10-19T13:07:02.686Z,10.07
2022-10-19T13:09:36.673Z,10.73
2022-10-19T13:12:19.353Z,9.63
2022-10-19T13:14:56.311Z,8.70
2022-10-19T13:17:37.435Z,8.93
2022-10-19T13:20:16.336Z,9.20
2022-10-19T13:23:00.923Z,13.30
2022-10-19T13:25:28.141Z,9.50
2022-10-19T13:28:09.200Z,8.88
2022-10-19T13:30:35.911Z,16.92
2022-10-19T13:33:33.407Z,8.07
2022-10-19T13:36:00.122Z,17.35
2022-10-19T13:38:47.056Z,8.43
2022-10-19T13:41:13.701Z,21.38
2022-10-19T13:43:55.471Z,8.73
2022-10-19T13:46:29.483Z,10.80
2022-10-19T13:49:02.364Z,16.13
2022-10-19T13:51:47.702Z,11.73
2022-10-19T13:54:19.964Z,24.50
2022-10-19T13:57:04.142Z,17.42
2022-10-19T13:59:39.931Z,43.72
2022-10-19T14:02:25.257Z,9.70
2022-10-19T14:05:27.069Z,18.27
2022-10-19T14:08:35.823Z,13.40
2022-10-19T14:11:06.029Z,18.88
2022-10-19T14:13:32.967Z,8.13
2022-10-19T14:16:03.289Z,29.05
2022-10-19T14:18:35.657Z,14.50
2022-10-19T14:21:07.778Z,10.68
2022-10-19T14:23:36.901Z,18.77
2022-10-19T14:26:13.866Z,10.35
2022-10-19T14:28:41.990Z,11.05
2022-10-19T14:31:11.395Z,10.02
2022-10-19T14:33:40.682Z,8.73
2022-10-19T14:36:14.701Z,10.25
2022-10-19T14:38:45.705Z,9.73
2022-10-19T14:44:35.072Z,18.88
2022-10-19T14:47:02.304Z,8.75
2022-10-19T14:49:29.005Z,8.75
2022-10-19T14:52:00.957Z,7.88
2022-10-19T14:54:30.784Z,6.25
2022-10-19T14:57:19.693Z,8.30
2022-10-19T14:59:50.300Z,6.10
2022-10-19T15:02:31.461Z,13.27
2022-10-19T15:05:01.861Z,7.07
2022-10-19T15:07:42.997Z,6.10
2022-10-19T15:10:20.462Z,6.55
2022-10-19T15:12:48.496Z,6.13
2022-10-19T15:15:26.056Z,6.60
2022-10-19T15:18:01.815Z,6.30
2022-10-19T15:20:30.074Z,7.82
2022-10-19T15:22:58.606Z,6.15
2022-10-19T15:25:30.012Z,7.93
2022-10-19T15:27:57.716Z,6.22
2022-10-19T15:30:31.762Z,7.03
2022-10-19T15:33:13.730Z,7.20
2022-10-19T15:35:44.202Z,5.95
2022-10-19T15:38:27.197Z,8.80
2022-10-19T15:41:01.795Z,5.82
2022-10-19T15:43:32.537Z,5.70
2022-10-19T15:46:23.837Z,6.03
2022-10-19T15:48:55.221Z,12.77
2022-10-19T15:51:25.018Z,5.85
2022-10-19T15:53:56.659Z,8.40
2022-10-19T15:56:25.927Z,11.70
2022-10-19T15:58:55.249Z,7.63
2022-10-19T16:01:26.283Z,24.25
2022-10-19T16:03:53.784Z,6.47
2022-10-19T16:06:22.982Z,6.25
2022-10-19T16:08:51.299Z,5.90
2022-10-19T16:11:19.924Z,14.45
2022-10-19T16:13:47.095Z,6.32
2022-10-19T16:16:21.095Z,12.43
2022-10-19T16:18:48.228Z,6.63
2022-10-19T16:21:15.521Z,12.73
2022-10-19T16:23:42.373Z,6.18
2022-10-19T16:26:09.116Z,7.32
2022-10-19T16:28:36.154Z,6.65
2022-10-19T16:31:02.993Z,11.48
2022-10-19T16:33:29.594Z,10.43
2022-10-19T16:35:56.233Z,9.88
2022-10-19T16:38:23.268Z,112.90
2022-10-19T16:40:49.969Z,300.33
2022-10-19T16:43:16.668Z,135.15
2022-10-19T16:45:44.410Z,71.05
2022-10-19T16:48:12.677Z,37.15
2022-10-19T16:50:39.520Z,17.42
2022-10-19T16:53:11.455Z,11.00
2022-10-19T16:55:39.825Z,40.17
2022-10-19T16:58:06.957Z,154.10
2022-10-19T17:00:35.412Z,85.90
2022-10-19T17:03:02.043Z,21.98
2022-10-19T17:05:28.676Z,18.65
2022-10-19T17:07:55.385Z,26.38
2022-10-19T17:10:22.093Z,20.73
2022-10-19T17:12:48.773Z,61.67
2022-10-19T17:15:41.644Z,72.32
2022-10-19T17:18:02.110Z,54.00
2022-10-19T17:20:28.859Z,13.25
2022-10-19T17:22:55.505Z,20.88
2022-10-19T17:25:22.151Z,37.10
2022-10-19T17:27:52.141Z,85.32
2022-10-19T17:30:18.899Z,24.63
2022-10-19T17:32:45.660Z,248.65
2022-10-19T17:35:12.274Z,48.75
2022-10-19T17:37:38.946Z,278.48
2022-10-19T17:40:06.221Z,252.23
2022-10-19T17:42:36.489Z,329.88
2022-10-19T17:45:03.670Z,96.97
2022-10-19T17:47:30.675Z,23.23
2022-10-19T17:49:57.294Z,21.88
2022-10-19T17:52:23.957Z,36.20
2022-10-19T17:55:11.081Z,124.97
2022-10-19T17:57:37.477Z,195.95
2022-10-19T18:00:05.993Z,192.93
2022-10-19T18:02:32.835Z,81.00
2022-10-19T18:04:59.622Z,260.13
2022-10-19T18:07:26.269Z,704.75
2022-10-19T18:09:52.929Z,267.92
2022-10-19T18:12:19.693Z,381.88
2022-10-19T18:14:46.317Z,224.50
2022-10-19T18:17:12.960Z,128.38
2022-10-19T18:19:39.818Z,81.22
2022-10-19T18:22:06.430Z,77.72
2022-10-19T18:24:34.719Z,491.50
2022-10-19T18:27:01.411Z,375.00
2022-10-19T18:29:28.158Z,145.77
2022-10-19T18:31:55.347Z,84.45
2022-10-19T18:34:26.346Z,29.25
2022-10-19T18:36:53.640Z,13.30
2022-10-19T18:39:20.368Z,17.90
2022-10-19T18:41:51.842Z,9.48
2022-10-19T18:44:23.504Z,13.25
2022-10-19T18:46:53.097Z,15.98
2022-10-19T18:49:19.770Z,8.82
2022-10-19T18:51:50.736Z,13.65
2022-10-19T18:54:21.202Z,16.02
2022-10-19T18:56:47.874Z,11.63
2022-10-19T18:59:15.090Z,8.05
2022-10-19T19:01:41.941Z,7.97
2022-10-19T19:04:10.101Z,9.50
2022-10-19T19:06:38.285Z,7.95
2022-10-19T19:09:09.183Z,7.43
2022-10-19T19:11:38.336Z,13.85
2022-10-19T19:14:07.924Z,11.23
2022-10-19T19:16:36.936Z,7.43
2022-10-19T19:19:04.670Z,7.53
2022-10-19T19:21:32.303Z,7.25
2022-10-19T19:24:01.346Z,9.93
2022-10-19T19:26:30.569Z,10.98
2022-10-19T19:29:00.448Z,7.80
2022-10-19T19:31:27.357Z,16.20
2022-10-19T19:33:54.107Z,12.10
2022-10-19T19:36:21.148Z,9.32
2022-10-19T19:38:50.642Z,7.30
2022-10-19T19:41:17.418Z,7.28
2022-10-19T19:43:44.379Z,7.63
2022-10-19T19:46:13.930Z,7.20
2022-10-19T19:48:43.274Z,7.32
2022-10-19T19:51:15.993Z,6.63
2022-10-19T19:53:43.060Z,6.97
2022-10-19T19:56:11.759Z,7.53
2022-10-19T19:58:39.418Z,13.10
2022-10-19T20:01:18.585Z,7.68
2022-10-19T20:03:46.386Z,11.13
2022-10-19T20:06:15.574Z,14.07
2022-10-19T20:08:42.571Z,14.38
2022-10-19T20:11:12.278Z,9.48
2022-10-19T20:13:39.705Z,20.38
2022-10-19T20:16:14.361Z,6.97
2022-10-19T20:18:43.708Z,8.90
2022-10-19T20:21:10.347Z,17.95
2022-10-19T20:23:37.388Z,10.90
2022-10-19T20:26:04.557Z,8.00
2022-10-19T20:28:34.268Z,19.95
2022-10-19T20:31:06.158Z,7.93
2022-10-19T20:33:36.190Z,11.55
2022-10-19T20:36:08.277Z,8.32
2022-10-19T20:38:37.245Z,8.40
2022-10-19T20:41:07.934Z,8.05
2022-10-19T20:43:38.919Z,17.48
2022-10-19T20:46:08.147Z,8.38
2022-10-19T20:48:35.079Z,14.18
2022-10-19T20:51:31.583Z,7.32
2022-10-19T20:54:00.674Z,12.68
2022-10-19T20:56:30.372Z,10.63
2022-10-19T21:01:32.088Z,6.70
2022-10-19T21:04:01.731Z,7.00
2022-10-19T21:06:31.371Z,10.45
2022-10-19T21:08:59.345Z,7.30
2022-10-19T21:11:31.189Z,7.85
2022-10-19T21:14:00.352Z,15.85
2022-10-19T21:16:30.004Z,10.88
2022-10-19T21:18:57.421Z,12.27
2022-10-19T21:21:27.809Z,15.05
2022-10-19T21:24:00.175Z,25.48
2022-10-19T21:26:28.383Z,12.13
2022-10-19T21:28:55.201Z,16.17
2022-10-19T21:31:23.257Z,10.55
2022-10-19T21:33:51.759Z,13.93
2022-10-19T21:36:19.472Z,12.95
2022-10-19T21:38:46.148Z,16.33
2022-10-19T21:41:20.978Z,9.57
2022-10-19T21:43:50.483Z,9.75
2022-10-19T21:46:19.513Z,9.05
2022-10-19T21:48:46.767Z,16.25
2022-10-19T21:51:32.163Z,9.52
2022-10-19T21:53:59.046Z,12.20
2022-10-19T21:56:26.094Z,14.40
2022-10-19T21:58:54.191Z,9.52
2022-10-19T22:01:24.407Z,15.27
2022-10-19T22:03:58.083Z,15.52
2022-10-19T22:06:26.484Z,16.65
2022-10-19T22:08:53.641Z,14.48
2022-10-19T22:11:20.765Z,11.93
2022-10-19T22:13:47.667Z,9.23
2022-10-19T22:16:17.145Z,13.68
2022-10-19T22:18:44.112Z,9.13
2022-10-19T22:21:17.248Z,11.07
2022-10-19T22:23:44.956Z,14.00
2022-10-19T22:26:16.607Z,11.35
2022-10-19T22:28:43.864Z,11.82
2022-10-19T22:31:11.494Z,15.15
2022-10-19T22:33:38.982Z,13.60
2022-10-19T22:36:08.048Z,11.32
2022-10-19T22:38:35.674Z,15.60
2022-10-19T22:41:02.287Z,9.95
2022-10-19T22:43:28.906Z,9.63
2022-10-19T22:45:55.569Z,10.15
2022-10-19T22:48:22.280Z,18.17
2022-10-19T22:50:52.246Z,9.25
2022-10-19T22:53:18.924Z,13.80
2022-10-19T22:55:45.570Z,9.30
2022-10-19T23:00:43.728Z,12.55
2022-10-19T23:03:10.537Z,12.23
2022-10-19T23:05:37.344Z,12.43
2022-10-19T23:08:04.038Z,10.18
2022-10-19T23:10:32.560Z,12.80
2022-10-19T23:12:59.235Z,11.27
2022-10-19T23:15:25.832Z,10.13
2022-10-19T23:17:52.482Z,9.68
2022-10-19T23:20:19.104Z,8.10
2022-10-19T23:22:45.677Z,8.40
2022-10-19T23:25:12.313Z,7.88
2022-10-19T23:27:39.311Z,10.43
2022-10-19T23:30:06.569Z,8.07
2022-10-19T23:32:33.211Z,13.73
2022-10-19T23:34:59.825Z,11.98
2022-10-19T23:37:26.561Z,11.00
2022-10-19T23:39:53.184Z,14.05
2022-10-19T23:42:19.843Z,15.15
2022-10-19T23:44:46.481Z,15.77
2022-10-19T23:47:13.155Z,8.63
2022-10-19T23:49:39.804Z,6.55
2022-10-19T23:52:06.443Z,12.98
2022-10-19T23:54:33.087Z,7.70
2022-10-19T23:56:59.873Z,6.95
2022-10-19T23:59:26.520Z,12.13
